createdAt,value
2019-05-15T00:01:08.750Z,83.03
2019-05-15T00:06:13.662Z,88.60
2019-05-15T00:11:19.559Z,78.83
2019-05-15T00:16:24.794Z,75.53
2019-05-15T00:21:29.762Z,78.37
2019-05-15T00:26:34.610Z,77.40
2019-05-15T00:31:40.935Z,78.43
2019-05-15T00:36:45.719Z,76.50
2019-05-15T00:41:54.634Z,78.00
2019-05-15T00:46:58.269Z,79.93
2019-05-15T00:52:03.566Z,75.53
2019-05-15T00:57:08.642Z,76.43
2019-05-15T01:02:13.472Z,73.13
2019-05-15T01:07:18.811Z,74.37
2019-05-15T01:12:23.869Z,73.20
2019-05-15T01:17:29.129Z,71.07
2019-05-15T01:22:34.377Z,66.20
2019-05-15T01:27:39.364Z,76.37
2019-05-15T01:32:44.183Z,72.30
2019-05-15T01:37:48.922Z,67.80
2019-05-15T01:42:53.730Z,64.77
2019-05-15T01:47:59.731Z,68.60
2019-05-15T01:53:04.593Z,67.13
2019-05-15T01:58:09.554Z,72.37
2019-05-15T02:03:14.387Z,61.80
2019-05-15T02:08:19.372Z,57.53
2019-05-15T02:13:24.612Z,58.97
2019-05-15T02:18:29.659Z,60.90
2019-05-15T02:23:34.685Z,64.07
2019-05-15T02:28:39.432Z,63.23
2019-05-15T02:33:44.246Z,58.67
2019-05-15T02:38:50.343Z,50.27
2019-05-15T02:43:55.296Z,53.67
2019-05-15T02:49:00.044Z,53.37
2019-05-15T02:54:05.094Z,49.30
2019-05-15T02:59:09.936Z,50.00
2019-05-15T03:04:14.767Z,44.83
2019-05-15T03:09:19.644Z,46.13
2019-05-15T03:15:00.977Z,47.77
2019-05-15T03:20:10.309Z,46.03
2019-05-15T03:25:14.560Z,40.40
2019-05-15T03:30:21.843Z,43.13
2019-05-15T03:35:25.957Z,41.10
2019-05-15T03:40:30.920Z,41.97
2019-05-15T03:45:35.742Z,43.40
2019-05-15T03:50:40.806Z,44.33
2019-05-15T03:55:45.713Z,39.17
2019-05-15T04:00:50.626Z,41.07
2019-05-15T04:05:55.703Z,40.90
2019-05-15T04:11:00.600Z,38.47
2019-05-15T04:16:05.973Z,40.37
2019-05-15T04:21:10.897Z,40.53
2019-05-15T04:26:15.954Z,36.10
2019-05-15T04:31:21.151Z,40.23
2019-05-15T04:36:29.359Z,36.97
2019-05-15T04:41:32.773Z,35.93
2019-05-15T04:46:39.209Z,37.63
2019-05-15T04:51:44.493Z,32.10
2019-05-15T04:56:49.676Z,33.70
2019-05-15T05:02:13.066Z,32.73
2019-05-15T05:07:01.290Z,52.70
2019-05-15T05:12:08.569Z,42.23
2019-05-15T05:17:12.904Z,36.03
2019-05-15T05:22:18.726Z,36.00
2019-05-15T05:27:24.318Z,37.03
2019-05-15T05:32:48.871Z,38.47
2019-05-15T05:37:54.095Z,36.10
2019-05-15T05:42:59.608Z,35.63
2019-05-15T05:48:05.070Z,34.70
2019-05-15T05:53:48.025Z,37.10
2019-05-15T05:58:53.803Z,45.57
2019-05-15T06:04:00.733Z,44.33
2019-05-15T06:09:09.044Z,48.90
2019-05-15T06:14:14.234Z,49.20
2019-05-15T06:19:19.081Z,41.67
2019-05-15T06:24:24.184Z,50.60
2019-05-15T06:29:31.172Z,45.70
2019-05-15T06:34:42.907Z,50.73
2019-05-15T06:39:52.076Z,48.20
2019-05-15T06:45:01.886Z,52.57
2019-05-15T06:50:10.161Z,51.43
2019-05-15T06:55:18.708Z,49.23
2019-05-15T07:00:24.787Z,53.90
2019-05-15T07:05:32.015Z,62.27
2019-05-15T07:10:37.926Z,58.93
2019-05-15T07:15:45.467Z,64.67
2019-05-15T07:20:53.411Z,70.20
2019-05-15T07:25:59.635Z,73.33
2019-05-15T07:31:41.490Z,72.40
2019-05-15T07:36:48.989Z,83.90
2019-05-15T07:41:53.094Z,72.87
2019-05-15T07:46:58.992Z,72.33
2019-05-15T07:52:04.250Z,70.57
2019-05-15T07:57:09.080Z,86.80
2019-05-15T08:02:18.905Z,88.67
2019-05-15T08:07:22.468Z,111.80
2019-05-15T08:12:28.321Z,93.17
2019-05-15T08:17:33.603Z,85.97
2019-05-15T08:22:38.543Z,77.63
2019-05-15T08:27:43.917Z,82.80
2019-05-15T08:32:51.425Z,103.97
2019-05-15T08:37:55.407Z,93.67
2019-05-15T08:43:02.185Z,87.60
2019-05-15T08:48:09.376Z,101.27
2019-05-15T08:53:13.891Z,92.10
2019-05-15T08:58:20.691Z,100.73
2019-05-15T09:03:25.611Z,86.37
2019-05-15T09:08:30.674Z,94.80
2019-05-15T09:13:42.241Z,97.70
2019-05-15T09:18:42.531Z,105.57
2019-05-15T09:23:49.871Z,100.70
2019-05-15T09:28:54.255Z,112.17
2019-05-15T09:33:59.192Z,96.23
2019-05-15T09:39:06.015Z,104.60
2019-05-15T09:44:11.281Z,107.57
2019-05-15T09:49:18.207Z,105.63
2019-05-15T09:54:25.691Z,115.97
2019-05-15T09:59:30.249Z,126.30
2019-05-15T10:04:35.417Z,144.20
2019-05-15T10:09:40.413Z,137.40
2019-05-15T10:14:49.248Z,167.43
2019-05-15T10:19:53.365Z,119.17
2019-05-15T10:25:02.809Z,150.97
2019-05-15T10:30:12.994Z,155.60
2019-05-15T10:35:28.101Z,178.27
2019-05-15T10:40:29.767Z,142.67
2019-05-15T10:45:42.346Z,141.90
2019-05-15T10:50:47.558Z,159.50
2019-05-15T10:55:53.566Z,151.87
2019-05-15T11:01:02.410Z,149.53
2019-05-15T11:06:11.376Z,154.83
2019-05-15T11:11:18.354Z,156.50
2019-05-15T11:16:28.209Z,206.17
2019-05-15T11:21:35.492Z,198.07
2019-05-15T11:26:44.903Z,196.90
2019-05-15T11:31:51.107Z,176.63
2019-05-15T11:36:59.315Z,180.97
2019-05-15T11:42:08.912Z,201.67
2019-05-15T11:47:18.398Z,174.47
2019-05-15T11:52:23.127Z,189.47
2019-05-15T11:57:42.591Z,154.83
2019-05-15T12:02:42.418Z,212.80
2019-05-15T12:07:48.401Z,161.93
2019-05-15T12:13:31.998Z,172.30
2019-05-15T12:18:40.139Z,150.60
2019-05-15T12:23:48.318Z,161.27
2019-05-15T12:28:53.344Z,154.17
2019-05-15T12:34:01.701Z,153.00
2019-05-15T12:39:13.828Z,152.80
2019-05-15T12:59:39.568Z,143.53
2019-05-15T13:04:44.549Z,139.70
2019-05-15T13:09:49.657Z,131.83
2019-05-15T13:14:54.593Z,133.53
2019-05-15T13:19:59.805Z,119.17
2019-05-15T13:25:08.448Z,135.17
2019-05-15T13:30:13.172Z,141.57
2019-05-15T13:35:18.534Z,208.10
2019-05-15T13:40:36.995Z,155.63
2019-05-15T13:45:30.987Z,150.20
2019-05-15T13:50:39.757Z,109.53
2019-05-15T13:55:43.201Z,67.10
2019-05-15T14:00:49.435Z,69.60
2019-05-15T14:06:33.853Z,47.90
2019-05-15T14:11:39.169Z,47.47
2019-05-15T14:16:44.827Z,49.53
2019-05-15T14:21:49.841Z,43.70
2019-05-15T14:26:59.169Z,46.87
2019-05-15T14:32:03.468Z,45.20
2019-05-15T14:37:09.159Z,49.27
2019-05-15T14:42:14.309Z,54.10
2019-05-15T14:47:19.648Z,43.63
2019-05-15T14:52:27.898Z,51.73
2019-05-15T14:57:32.902Z,49.63
2019-05-15T15:02:38.947Z,49.23
2019-05-15T15:07:49.001Z,44.80
2019-05-15T15:12:54.485Z,44.57
2019-05-15T15:17:59.922Z,42.60
2019-05-15T15:23:07.986Z,36.77
2019-05-15T15:28:12.414Z,39.33
2019-05-15T15:33:18.338Z,37.30
2019-05-15T15:38:37.604Z,40.67
2019-05-15T15:43:31.829Z,43.00
2019-05-15T15:48:39.040Z,31.73
2019-05-15T15:53:47.960Z,32.43
2019-05-15T15:58:53.767Z,33.30
2019-05-15T16:03:58.979Z,37.23
2019-05-15T16:09:05.438Z,37.47
2019-05-15T16:14:10.646Z,33.23
2019-05-15T16:19:18.222Z,30.63
2019-05-15T16:24:23.052Z,36.53
2019-05-15T16:29:30.210Z,32.40
2019-05-15T16:34:35.773Z,29.37
2019-05-15T16:39:41.744Z,32.23
2019-05-15T16:44:49.026Z,33.97
2019-05-15T16:49:57.849Z,32.87
2019-05-15T16:55:02.384Z,30.20
2019-05-15T17:00:10.103Z,27.20
2019-05-15T17:05:18.348Z,30.70
2019-05-15T17:10:24.440Z,32.47
2019-05-15T17:15:31.599Z,29.07
2019-05-15T17:20:36.850Z,27.43
2019-05-15T17:25:42.120Z,30.27
2019-05-15T17:30:48.802Z,31.67
2019-05-15T17:35:54.686Z,29.53
2019-05-15T17:40:59.692Z,27.40
2019-05-15T17:46:05.817Z,34.13
2019-05-15T17:51:11.866Z,45.23
2019-05-15T17:56:17.232Z,42.13
2019-05-15T18:01:23.709Z,40.07
2019-05-15T18:06:29.193Z,40.50
2019-05-15T18:11:34.856Z,43.83
2019-05-15T18:16:40.556Z,45.93
2019-05-15T18:21:49.818Z,45.60
2019-05-15T18:26:55.087Z,56.50
2019-05-15T18:32:00.605Z,53.50
2019-05-15T18:37:05.738Z,51.23
2019-05-15T18:42:10.993Z,55.07
2019-05-15T18:47:18.607Z,59.30
2019-05-15T18:52:22.853Z,61.70
2019-05-15T18:57:28.587Z,63.63
2019-05-15T19:02:34.522Z,63.50
2019-05-15T19:07:41.003Z,67.93
2019-05-15T19:12:48.436Z,69.40
2019-05-15T19:17:54.169Z,74.60
2019-05-15T19:22:59.479Z,77.07
2019-05-15T19:28:05.024Z,75.00
2019-05-15T19:33:12.490Z,103.93
2019-05-15T19:38:18.586Z,95.90
2019-05-15T19:43:26.135Z,96.53
2019-05-15T19:48:32.212Z,104.53
2019-05-15T19:53:37.318Z,139.57
2019-05-15T19:58:42.827Z,136.77
2019-05-15T20:03:52.873Z,117.63
2019-05-15T20:08:55.330Z,129.30
2019-05-15T20:14:00.751Z,135.00
2019-05-15T20:19:08.610Z,126.57
2019-05-15T20:24:14.628Z,127.93
2019-05-15T20:29:19.927Z,123.30
2019-05-15T20:34:25.203Z,130.37
2019-05-15T20:39:31.138Z,134.40
2019-05-15T20:44:39.483Z,132.70
2019-05-15T20:49:48.503Z,134.90
2019-05-15T20:54:53.917Z,126.37
2019-05-15T21:00:00.362Z,135.80
2019-05-15T21:05:08.858Z,133.93
2019-05-15T21:10:13.927Z,129.30
2019-05-15T21:15:21.388Z,134.93
2019-05-15T21:20:25.920Z,138.17
2019-05-15T21:25:32.904Z,131.63
2019-05-15T21:30:40.982Z,132.77
2019-05-15T21:35:48.727Z,125.33
2019-05-15T21:40:54.332Z,119.67
2019-05-15T21:46:01.281Z,125.53
2019-05-15T21:51:11.240Z,126.07
2019-05-15T21:56:15.001Z,125.40
2019-05-15T22:01:21.790Z,118.70
2019-05-15T22:06:29.253Z,122.80
2019-05-15T22:11:34.848Z,123.57
2019-05-15T22:16:42.351Z,119.00
2019-05-15T22:21:48.960Z,113.93
2019-05-15T22:26:55.006Z,115.40
2019-05-15T22:32:00.258Z,120.90
2019-05-15T22:37:08.962Z,115.17
2019-05-15T22:42:15.056Z,116.03
2019-05-15T22:47:20.197Z,111.23
2019-05-15T22:52:28.528Z,121.03
2019-05-15T22:57:34.048Z,115.63
2019-05-15T23:02:38.976Z,113.12
2019-05-15T23:07:44.660Z,119.60
2019-05-15T23:12:49.943Z,105.13
2019-05-15T23:17:58.329Z,108.90
2019-05-15T23:23:03.991Z,109.50
2019-05-15T23:28:09.214Z,106.47
2019-05-15T23:33:14.262Z,100.90
2019-05-15T23:38:19.644Z,105.83
2019-05-15T23:43:24.901Z,104.23
2019-05-15T23:48:30.238Z,96.30
2019-05-15T23:53:35.285Z,99.50
2019-05-15T23:58:42.320Z,91.63
